Weather at Amherst Airport [CLOSED]

Public forecast

Using degrees Celsius for public forecast. Weather courtesy of forecast.io.

Closest aviation weather report (METAR) to Amherst Airport

Closest report is Greater Moncton Roméo LeBlanc International Airport, 25.7 nm (47.6 km) NW.

2023/03/31 23:00 (retrieved 10 minutes ago)

CYQM 312300Z 17008KT 15SM FEW030 FEW090 SCT120 BKN220 02/M05 A3012 RMK SC1AC1AS3CI4 SC TR AC TR SLP205

Closest aviation forecast (TAF) to Amherst Airport

Closest forecast is Greater Moncton Roméo LeBlanc International Airport, 25.7 nm (47.6 km) NW.

2023/03/31 18:42 (retrieved 4 hours ago)

TAF CYQM 311740Z 3118/0118 30008KT P6SM BKN030 TEMPO 3118/3122 P6SM -SHSN BKN025 FM312200 23007KT P6SM SCT040 BECMG 0100/0102 20008KT BKN100 FM010800 19008KT P6SM BKN015 OVC060 FM011000 17007KT 4SM -SN BKN015 OVC040 FM011400 16012KT 1 1/2SM -SN BR OVC010 FM011700 15012G22KT 2 1/2SM -RA BR OVC005 RMK NXT FCST BY 010000Z